Station History

Weather Underground - logo

Station Historical Data
Daily Summary for October 25, 2017 Units:  English    Metric   Both
« Previous Day
Next Day »
Daily Weekly Monthly Yearly Custom
  High: Low: Average:
Temperature: 88.3 °F 51.7 °F 67.8 °F
Dew Point: 59.6 °F 48.4 °F 53.9 °F
Humidity: 90 % 29 % 66 %
Wind Speed: 3.5 mph 0.0 mph 0.4 mph
Wind Gust: 3.5 mph - -
Wind:- - West
Pressure: 30.05 in 29.83 in -
Precipitation: 0.00 in    
Historical Graphs
 
 
Tabular Data for October 25, 2017
Time Temperature Dew Point Pressure Wind Wind Speed Wind Gust Humidity Rainfall Rate (Hourly)
00:01 62.1 °F 54.1 °F 30.05 in Calm     75 % 0.00 in
00:06 61.7 °F 54.1 °F 30.05 in Calm     76 % 0.00 in
00:11 61.3 °F 53.7 °F 30.05 in Calm     76 % 0.00 in
00:16 61.3 °F 54.0 °F 30.05 in Calm     77 % 0.00 in
00:21 60.7 °F 54.1 °F 30.05 in Calm     79 % 0.00 in
00:26 59.9 °F 54.1 °F 30.05 in Calm     81 % 0.00 in
00:31 59.9 °F 54.4 °F 30.05 in Calm     82 % 0.00 in
00:36 59.8 °F 54.0 °F 30.05 in Calm     81 % 0.00 in
00:41 59.6 °F 53.8 °F 30.05 in Calm     81 % 0.00 in
00:46 59.6 °F 53.4 °F 30.05 in Calm     80 % 0.00 in
00:52 59.7 °F 53.5 °F 30.05 in Calm     80 % 0.00 in
00:57 59.5 °F 53.3 °F 30.05 in Calm     80 % 0.00 in
01:02 59.2 °F 53.4 °F 30.05 in Calm     81 % 0.00 in
01:07 58.7 °F 52.9 °F 30.05 in Calm     81 % 0.00 in
01:12 58.0 °F 52.9 °F 30.05 in Calm     83 % 0.00 in
01:17 57.3 °F 52.2 °F 30.04 in Calm     83 % 0.00 in
01:22 57.0 °F 52.2 °F 30.05 in Calm     84 % 0.00 in
01:27 56.8 °F 52.0 °F 30.05 in Calm     84 % 0.00 in
01:32 56.9 °F 52.8 °F 30.05 in Calm     86 % 0.00 in
01:37 57.1 °F 52.6 °F 30.04 in Calm     85 % 0.00 in
01:42 57.0 °F 52.5 °F 30.04 in Calm     85 % 0.00 in
01:47 56.9 °F 52.4 °F 30.04 in Calm     85 % 0.00 in
01:52 56.5 °F 52.0 °F 30.04 in Calm     85 % 0.00 in
01:57 56.1 °F 51.7 °F 30.04 in Calm     85 % 0.00 in
02:02 55.9 °F 51.8 °F 30.03 in Calm     86 % 0.00 in
02:07 55.7 °F 51.9 °F 30.03 in Calm     87 % 0.00 in
02:12 55.5 °F 51.7 °F 30.03 in Calm     87 % 0.00 in
02:17 55.3 °F 51.5 °F 30.03 in Calm     87 % 0.00 in
02:22 55.2 °F 51.7 °F 30.02 in Calm     88 % 0.00 in
02:27 55.1 °F 51.6 °F 30.02 in Calm     88 % 0.00 in
02:32 55.2 °F 51.7 °F 30.02 in Calm     88 % 0.00 in
02:37 55.2 °F 51.7 °F 30.02 in Calm     88 % 0.00 in
02:42 55.1 °F 51.6 °F 30.02 in Calm     88 % 0.00 in
02:47 55.0 °F 51.5 °F 30.01 in Calm     88 % 0.00 in
02:57 54.7 °F 51.5 °F 30.01 in Calm     89 % 0.00 in
03:02 54.8 °F 51.6 °F 30.01 in Calm     89 % 0.00 in
03:07 54.8 °F 51.6 °F 30.01 in Calm     89 % 0.00 in
03:12 54.7 °F 51.5 °F 30.01 in Calm     89 % 0.00 in
03:17 54.5 °F 51.0 °F 30.01 in Calm     88 % 0.00 in
03:22 54.3 °F 50.8 °F 30.01 in Calm     88 % 0.00 in
03:27 54.2 °F 50.7 °F 30.01 in Calm     88 % 0.00 in
03:33 54.2 °F 50.7 °F 30.01 in Calm     88 % 0.00 in
03:38 54.1 °F 50.6 °F 30.01 in Calm     88 % 0.00 in
03:43 54.0 °F 50.2 °F 30.00 in Calm     87 % 0.00 in
03:48 53.9 °F 50.1 °F 30.00 in Calm     87 % 0.00 in
03:58 53.5 °F 50.0 °F 30.00 in Calm     88 % 0.00 in
04:03 53.4 °F 50.2 °F 30.00 in Calm     89 % 0.00 in
04:08 53.7 °F 50.5 °F 30.00 in Calm     89 % 0.00 in
04:13 54.3 °F 50.5 °F 30.00 in Calm     87 % 0.00 in
04:18 54.8 °F 50.1 °F 30.00 in Calm     84 % 0.00 in
04:23 55.0 °F 50.3 °F 30.00 in Calm     84 % 0.00 in
04:28 54.8 °F 50.4 °F 30.00 in Calm     85 % 0.00 in
04:33 54.7 °F 50.3 °F 29.99 in Calm     85 % 0.00 in
04:38 54.6 °F 50.5 °F 29.99 in Calm     86 % 0.00 in
04:43 54.5 °F 50.1 °F 29.99 in Calm     85 % 0.00 in
04:48 54.6 °F 50.2 °F 29.99 in Calm     85 % 0.00 in
04:53 54.9 °F 50.2 °F 29.99 in Calm     84 % 0.00 in
04:58 54.9 °F 50.2 °F 29.99 in Calm     84 % 0.00 in
05:03 54.5 °F 49.8 °F 29.99 in Calm     84 % 0.00 in
05:08 53.7 °F 49.3 °F 29.99 in Calm     85 % 0.00 in
05:13 53.3 °F 48.9 °F 29.99 in Calm     85 % 0.00 in
05:18 53.1 °F 49.0 °F 29.99 in Calm     86 % 0.00 in
05:23 53.2 °F 50.0 °F 30.00 in Calm     89 % 0.00 in
05:28 53.1 °F 49.6 °F 29.99 in Calm     88 % 0.00 in
05:33 52.7 °F 48.9 °F 30.00 in Calm     87 % 0.00 in
05:38 52.6 °F 48.8 °F 29.99 in Calm     87 % 0.00 in
05:43 52.7 °F 48.9 °F 29.99 in Calm     87 % 0.00 in
05:48 53.0 °F 49.2 °F 29.99 in Calm     87 % 0.00 in
05:53 52.9 °F 49.1 °F 29.99 in Calm     87 % 0.00 in
05:58 52.7 °F 48.6 °F 29.99 in Calm     86 % 0.00 in
06:03 52.5 °F 48.4 °F 29.99 in Calm     86 % 0.00 in
06:08 52.4 °F 48.6 °F 29.99 in Calm     87 % 0.00 in
06:13 52.4 °F 48.9 °F 30.00 in Calm     88 % 0.00 in
06:18 52.8 °F 49.0 °F 30.00 in Calm     87 % 0.00 in
06:23 52.7 °F 48.6 °F 30.00 in Calm     86 % 0.00 in
06:28 52.7 °F 49.2 °F 30.00 in Calm     88 % 0.00 in
06:33 52.6 °F 49.1 °F 30.00 in Calm     88 % 0.00 in
06:38 52.5 °F 49.0 °F 30.00 in Calm     88 % 0.00 in
06:43 52.5 °F 49.0 °F 30.00 in Calm     88 % 0.00 in
06:48 52.3 °F 48.9 °F 30.00 in Calm     88 % 0.00 in
06:53 51.9 °F 48.8 °F 30.00 in Calm     89 % 0.00 in
06:58 51.9 °F 48.8 °F 30.00 in Calm     89 % 0.00 in
07:03 51.7 °F 48.6 °F 30.00 in Calm     89 % 0.00 in
07:08 51.7 °F 48.9 °F 30.00 in Calm     90 % 0.00 in
07:18 51.7 °F 48.6 °F 30.00 in Calm     89 % 0.00 in
07:23 51.8 °F 48.7 °F 30.00 in Calm     89 % 0.00 in
07:28 52.0 °F 48.9 °F 30.00 in Calm     89 % 0.00 in
07:33 51.9 °F 48.8 °F 30.00 in Calm     89 % 0.00 in
07:38 51.9 °F 48.8 °F 30.00 in Calm     89 % 0.00 in
07:43 52.1 °F 49.3 °F 30.00 in Calm     90 % 0.00 in
07:48 52.2 °F 49.4 °F 30.00 in Calm     90 % 0.00 in
07:53 52.3 °F 49.5 °F 30.01 in Calm     90 % 0.00 in
07:58 52.5 °F 49.7 °F 30.01 in Calm     90 % 0.00 in
08:03 52.8 °F 49.9 °F 30.01 in Calm     90 % 0.00 in
08:08 53.1 °F 50.2 °F 30.01 in Calm     90 % 0.00 in
08:13 53.8 °F 50.6 °F 30.01 in Calm     89 % 0.00 in
08:18 54.9 °F 51.1 °F 30.01 in Calm     87 % 0.00 in
08:23 56.1 °F 51.3 °F 30.01 in Calm     84 % 0.00 in
08:28 57.2 °F 52.1 °F 30.02 in Calm     83 % 0.00 in
08:33 58.4 °F 52.9 °F 30.01 in Calm     82 % 0.00 in
08:39 60.2 °F 54.0 °F 30.01 in Calm     80 % 0.00 in
08:44 62.0 °F 54.0 °F 30.01 in Calm     75 % 0.00 in
08:49 62.6 °F 53.8 °F 30.01 in Calm     73 % 0.00 in
08:54 64.2 °F 54.2 °F 30.01 in Calm     70 % 0.00 in
08:59 66.0 °F 54.3 °F 30.01 in Calm     66 % 0.00 in
09:04 67.2 °F 54.6 °F 30.01 in Calm     64 % 0.00 in
09:09 67.8 °F 54.3 °F 30.01 in Calm     62 % 0.00 in
09:14 67.7 °F 53.3 °F 30.01 in Calm     60 % 0.00 in
09:19 68.6 °F 53.7 °F 30.01 in Calm     59 % 0.00 in
09:24 69.5 °F 54.1 °F 30.01 in Calm     58 % 0.00 in
09:29 69.5 °F 54.5 °F 30.01 in SE 1.2 mph 1.2 mph 59 % 0.00 in
09:34 70.0 °F 54.5 °F 30.01 in Calm     58 % 0.00 in
09:39 69.1 °F 53.7 °F 30.01 in Calm     58 % 0.00 in
09:44 69.0 °F 54.5 °F 30.01 in SW 1.2 mph 1.2 mph 60 % 0.00 in
09:49 69.3 °F 54.8 °F 30.01 in Calm     60 % 0.00 in
09:54 70.0 °F 54.5 °F 30.01 in Calm     58 % 0.00 in
09:59 70.3 °F 55.3 °F 30.01 in Calm     59 % 0.00 in
10:04 70.7 °F 53.7 °F 30.00 in NNW 1.2 mph 1.2 mph 55 % 0.00 in
10:09 71.1 °F 54.6 °F 30.00 in NNW 1.0 mph 1.0 mph 56 % 0.00 in
10:14 70.9 °F 54.4 °F 30.00 in Calm     56 % 0.00 in
10:19 71.5 °F 54.0 °F 30.00 in East 2.3 mph 2.3 mph 54 % 0.00 in
10:24 72.0 °F 54.4 °F 30.00 in East 2.3 mph 2.3 mph 54 % 0.00 in
10:29 72.6 °F 55.5 °F 30.00 in SE 1.2 mph 1.2 mph 55 % 0.00 in
10:39 73.7 °F 55.0 °F 30.00 in North 1.0 mph   52 % 0.00 in
10:44 73.6 °F 55.4 °F 30.00 in Calm     53 % 0.00 in
10:49 74.3 °F 55.0 °F 30.00 in SSE 1.2 mph 1.2 mph 51 % 0.00 in
10:54 74.7 °F 55.4 °F 30.00 in WSW 1.2 mph 1.2 mph 51 % 0.00 in
10:59 74.5 °F 54.6 °F 30.00 in West 1.2 mph 1.2 mph 50 % 0.00 in
11:04 74.6 °F 56.3 °F 29.99 in Calm     53 % 0.00 in
11:09 75.7 °F 57.4 °F 29.99 in Calm     53 % 0.00 in
11:14 76.1 °F 56.7 °F 29.99 in WNW 1.2 mph   51 % 0.00 in
11:19 76.1 °F 56.1 °F 29.99 in WNW 1.2 mph   50 % 0.00 in
11:24 76.4 °F 55.8 °F 29.99 in Calm     49 % 0.00 in
11:29 77.1 °F 55.9 °F 29.99 in WNW 1.2 mph 1.2 mph 48 % 0.00 in
11:34 77.3 °F 54.9 °F 29.99 in NNE 1.2 mph   46 % 0.00 in
11:39 77.8 °F 56.5 °F 29.98 in SE 2.3 mph 2.3 mph 48 % 0.00 in
11:44 78.4 °F 55.9 °F 29.98 in Calm     46 % 0.00 in
11:49 78.5 °F 57.2 °F 29.97 in Calm     48 % 0.00 in
11:54 79.1 °F 56.5 °F 29.97 in Calm     46 % 0.00 in
11:59 79.6 °F 56.4 °F 29.97 in Calm     45 % 0.00 in
12:04 79.8 °F 56.6 °F 29.97 in NNW 1.2 mph   45 % 0.00 in
12:09 80.1 °F 56.2 °F 29.96 in WNW 1.2 mph   44 % 0.00 in
12:14 80.2 °F 55.7 °F 29.96 in SW 2.3 mph 2.3 mph 43 % 0.00 in
12:19 80.6 °F 56.7 °F 29.96 in NW 1.2 mph 1.2 mph 44 % 0.00 in
12:24 80.8 °F 54.9 °F 29.95 in Calm     41 % 0.00 in
12:29 80.8 °F 54.9 °F 29.95 in NE 1.2 mph 1.2 mph 41 % 0.00 in
12:34 81.2 °F 55.3 °F 29.95 in Calm     41 % 0.00 in
12:39 81.8 °F 55.1 °F 29.95 in North 1.2 mph   40 % 0.00 in
12:44 82.3 °F 56.2 °F 29.94 in NW 2.3 mph 2.3 mph 41 % 0.00 in
12:49 82.5 °F 54.3 °F 29.94 in NW 1.2 mph 1.2 mph 38 % 0.00 in
12:54 82.8 °F 55.3 °F 29.94 in NE 2.3 mph 2.3 mph 39 % 0.00 in
12:59 83.2 °F 55.0 °F 29.93 in NW 2.0 mph 2.0 mph 38 % 0.00 in
13:04 83.4 °F 55.8 °F 29.93 in NW 2.3 mph 2.3 mph 39 % 0.00 in
13:09 83.4 °F 55.1 °F 29.93 in NW 3.5 mph 3.5 mph 38 % 0.00 in
13:14 83.7 °F 54.7 °F 29.92 in NW 2.0 mph 2.0 mph 37 % 0.00 in
13:19 84.1 °F 55.7 °F 29.92 in NW 1.2 mph 1.2 mph 38 % 0.00 in
13:24 84.5 °F 53.8 °F 29.92 in NNE 1.2 mph 1.2 mph 35 % 0.00 in
13:29 84.8 °F 53.3 °F 29.91 in WNW 2.3 mph 2.3 mph 34 % 0.00 in
13:34 84.8 °F 54.1 °F 29.91 in WNW 2.3 mph 2.3 mph 35 % 0.00 in
13:39 85.3 °F 54.5 °F 29.91 in WNW 2.0 mph 2.0 mph 35 % 0.00 in
13:44 85.4 °F 53.8 °F 29.91 in NW 2.3 mph 2.3 mph 34 % 0.00 in
13:49 85.6 °F 54.8 °F 29.90 in WNW 1.2 mph   35 % 0.00 in
13:54 86.0 °F 55.2 °F 29.90 in NW 2.3 mph 2.3 mph 35 % 0.00 in
13:59 86.2 °F 55.3 °F 29.90 in WNW 2.3 mph 2.3 mph 35 % 0.00 in
14:04 86.3 °F 54.6 °F 29.89 in WNW 1.2 mph 1.2 mph 34 % 0.00 in
14:09 86.7 °F 55.0 °F 29.89 in NW 1.2 mph   34 % 0.00 in
14:14 86.9 °F 54.3 °F 29.89 in Calm     33 % 0.00 in
14:19 87.0 °F 52.7 °F 29.89 in NW 3.5 mph 3.5 mph 31 % 0.00 in
14:24 87.1 °F 53.7 °F 29.89 in West 1.2 mph   32 % 0.00 in
14:29 87.3 °F 53.0 °F 29.88 in NW 1.2 mph 1.2 mph 31 % 0.00 in
14:34 87.4 °F 53.1 °F 29.88 in NW 1.2 mph   31 % 0.00 in
14:39 87.9 °F 52.6 °F 29.88 in WSW 1.2 mph 1.2 mph 30 % 0.00 in
14:44 88.1 °F 51.8 °F 29.88 in NW 1.2 mph 1.2 mph 29 % 0.00 in
14:49 88.0 °F 53.6 °F 29.88 in SW 1.2 mph   31 % 0.00 in
14:57 88.2 °F 52.9 °F 29.87 in NW 1.2 mph 1.2 mph 30 % 0.00 in
15:02 88.2 °F 52.9 °F 29.87 in NW 2.3 mph 2.3 mph 30 % 0.00 in
15:07 88.1 °F 52.8 °F 29.87 in NW 2.3 mph 2.3 mph 30 % 0.00 in
15:12 88.1 °F 51.8 °F 29.87 in WNW 2.0 mph 2.0 mph 29 % 0.00 in
15:17 88.1 °F 51.8 °F 29.87 in NNW 2.3 mph 2.3 mph 29 % 0.00 in
15:22 88.3 °F 52.0 °F 29.86 in NW 3.0 mph 3.0 mph 29 % 0.00 in
15:27 88.2 °F 51.9 °F 29.86 in NW 1.2 mph   29 % 0.00 in
15:32 88.3 °F 52.9 °F 29.86 in WNW 1.2 mph 1.2 mph 30 % 0.00 in
15:37 88.3 °F 52.9 °F 29.86 in WNW 1.2 mph 1.2 mph 30 % 0.00 in
15:42 88.2 °F 52.9 °F 29.86 in WNW 1.2 mph   30 % 0.00 in
15:47 88.1 °F 53.7 °F 29.86 in NNW 2.0 mph 2.0 mph 31 % 0.00 in
15:52 88.0 °F 53.6 °F 29.86 in NW 2.3 mph 2.3 mph 31 % 0.00 in
15:57 87.9 °F 52.6 °F 29.86 in NW 2.3 mph 2.3 mph 30 % 0.00 in
16:02 87.8 °F 53.4 °F 29.85 in NW 2.3 mph 2.3 mph 31 % 0.00 in
16:07 87.7 °F 54.2 °F 29.85 in NW 1.2 mph 1.2 mph 32 % 0.00 in
16:12 87.6 °F 53.2 °F 29.85 in NW 2.3 mph 2.3 mph 31 % 0.00 in
16:17 87.6 °F 54.9 °F 29.85 in NW 1.2 mph   33 % 0.00 in
16:22 87.5 °F 53.1 °F 29.85 in WSW 2.3 mph 2.3 mph 31 % 0.00 in
16:27 87.5 °F 53.1 °F 29.85 in NW 1.2 mph 1.2 mph 31 % 0.00 in
16:32 87.3 °F 53.8 °F 29.85 in NW 1.2 mph   32 % 0.00 in
16:38 87.0 °F 54.4 °F 29.85 in NNW 1.0 mph   33 % 0.00 in
16:43 86.9 °F 53.5 °F 29.85 in NW 2.3 mph 2.3 mph 32 % 0.00 in
16:48 86.7 °F 55.0 °F 29.84 in Calm     34 % 0.00 in
16:53 86.5 °F 55.6 °F 29.84 in NW 1.2 mph 1.2 mph 35 % 0.00 in
16:58 86.3 °F 54.6 °F 29.84 in NW 1.2 mph 1.2 mph 34 % 0.00 in
17:03 86.1 °F 54.5 °F 29.84 in Calm     34 % 0.00 in
17:08 85.8 °F 55.8 °F 29.84 in NW 1.2 mph   36 % 0.00 in
17:13 85.5 °F 55.5 °F 29.84 in Calm     36 % 0.00 in
17:18 85.2 °F 56.0 °F 29.84 in Calm     37 % 0.00 in
17:23 84.8 °F 56.4 °F 29.84 in Calm     38 % 0.00 in
17:28 84.4 °F 56.0 °F 29.84 in Calm     38 % 0.00 in
17:33 83.8 °F 56.9 °F 29.84 in Calm     40 % 0.00 in
17:38 83.1 °F 57.6 °F 29.84 in Calm     42 % 0.00 in
17:43 82.2 °F 58.1 °F 29.84 in Calm     44 % 0.00 in
17:48 81.4 °F 58.0 °F 29.84 in Calm     45 % 0.00 in
17:53 80.6 °F 57.9 °F 29.84 in Calm     46 % 0.00 in
17:58 79.8 °F 58.9 °F 29.83 in Calm     49 % 0.00 in
18:03 78.8 °F 58.0 °F 29.84 in Calm     49 % 0.00 in
18:08 77.8 °F 58.2 °F 29.84 in Calm     51 % 0.00 in
18:13 76.8 °F 58.9 °F 29.84 in Calm     54 % 0.00 in
18:18 76.1 °F 58.8 °F 29.83 in Calm     55 % 0.00 in
18:23 75.4 °F 58.6 °F 29.83 in Calm     56 % 0.00 in
18:28 74.9 °F 58.6 °F 29.83 in Calm     57 % 0.00 in
18:33 74.5 °F 59.2 °F 29.83 in Calm     59 % 0.00 in
18:38 73.9 °F 58.7 °F 29.84 in Calm     59 % 0.00 in
18:43 73.4 °F 59.6 °F 29.84 in Calm     62 % 0.00 in
18:48 72.8 °F 59.0 °F 29.84 in Calm     62 % 0.00 in
18:53 72.2 °F 59.3 °F 29.84 in Calm     64 % 0.00 in
18:58 71.5 °F 59.1 °F 29.84 in Calm     65 % 0.00 in
19:03 70.9 °F 58.1 °F 29.84 in Calm     64 % 0.00 in
19:08 70.5 °F 58.2 °F 29.84 in Calm     65 % 0.00 in
19:13 70.5 °F 58.6 °F 29.84 in Calm     66 % 0.00 in
19:18 70.4 °F 58.1 °F 29.84 in Calm     65 % 0.00 in
19:23 70.2 °F 57.9 °F 29.84 in Calm     65 % 0.00 in
19:28 70.2 °F 57.9 °F 29.84 in Calm     65 % 0.00 in
19:33 69.8 °F 57.9 °F 29.84 in Calm     66 % 0.00 in
19:38 69.4 °F 57.5 °F 29.84 in Calm     66 % 0.00 in
19:43 69.0 °F 57.6 °F 29.84 in Calm     67 % 0.00 in
19:48 68.7 °F 57.7 °F 29.84 in Calm     68 % 0.00 in
19:53 68.4 °F 57.8 °F 29.84 in Calm     69 % 0.00 in
19:58 68.4 °F 58.2 °F 29.84 in Calm     70 % 0.00 in
20:03 68.1 °F 58.3 °F 29.84 in Calm     71 % 0.00 in
20:08 67.8 °F 58.1 °F 29.84 in Calm     71 % 0.00 in
20:13 67.6 °F 57.9 °F 29.84 in Calm     71 % 0.00 in
20:21 67.3 °F 57.6 °F 29.85 in Calm     71 % 0.00 in
20:26 67.0 °F 57.7 °F 29.85 in Calm     72 % 0.00 in
20:31 66.7 °F 57.4 °F 29.85 in Calm     72 % 0.00 in
20:36 66.5 °F 57.2 °F 29.85 in Calm     72 % 0.00 in
20:41 66.2 °F 56.5 °F 29.85 in Calm     71 % 0.00 in
20:46 66.1 °F 56.4 °F 29.85 in Calm     71 % 0.00 in
20:51 65.8 °F 56.5 °F 29.85 in Calm     72 % 0.00 in
20:56 65.6 °F 56.7 °F 29.85 in Calm     73 % 0.00 in
21:01 65.5 °F 56.6 °F 29.85 in Calm     73 % 0.00 in
21:06 65.3 °F 56.8 °F 29.86 in Calm     74 % 0.00 in
21:11 65.0 °F 56.9 °F 29.86 in Calm     75 % 0.00 in
21:17 64.7 °F 57.0 °F 29.86 in Calm     76 % 0.00 in
21:22 64.5 °F 57.1 °F 29.86 in Calm     77 % 0.00 in
21:27 64.2 °F 56.8 °F 29.86 in Calm     77 % 0.00 in
21:32 63.9 °F 56.9 °F 29.86 in Calm     78 % 0.00 in
21:37 63.5 °F 56.5 °F 29.86 in Calm     78 % 0.00 in
21:42 63.1 °F 56.5 °F 29.86 in Calm     79 % 0.00 in
21:47 63.0 °F 56.7 °F 29.86 in Calm     80 % 0.00 in
21:52 62.9 °F 56.3 °F 29.86 in Calm     79 % 0.00 in
21:57 62.9 °F 56.3 °F 29.86 in Calm     79 % 0.00 in
22:02 62.8 °F 56.5 °F 29.86 in Calm     80 % 0.00 in
22:07 62.6 °F 56.3 °F 29.86 in Calm     80 % 0.00 in
22:12 62.4 °F 56.1 °F 29.86 in Calm     80 % 0.00 in
22:17 62.0 °F 55.8 °F 29.86 in Calm     80 % 0.00 in
22:22 61.7 °F 55.8 °F 29.86 in Calm     81 % 0.00 in
22:27 61.5 °F 56.0 °F 29.86 in Calm     82 % 0.00 in
22:32 61.2 °F 55.7 °F 29.86 in Calm     82 % 0.00 in
22:37 60.8 °F 55.3 °F 29.87 in Calm     82 % 0.00 in
22:42 60.6 °F 55.1 °F 29.87 in Calm     82 % 0.00 in
22:47 60.4 °F 55.2 °F 29.87 in Calm     83 % 0.00 in
22:52 60.4 °F 55.2 °F 29.87 in Calm     83 % 0.00 in
22:57 60.3 °F 55.4 °F 29.87 in Calm     84 % 0.00 in
23:02 60.2 °F 55.3 °F 29.87 in Calm     84 % 0.00 in
23:07 60.0 °F 55.2 °F 29.87 in Calm     84 % 0.00 in
23:12 59.8 °F 55.0 °F 29.87 in Calm     84 % 0.00 in
23:17 59.7 °F 54.9 °F 29.87 in Calm     84 % 0.00 in
23:22 59.7 °F 54.9 °F 29.87 in Calm     84 % 0.00 in
23:27 59.6 °F 55.1 °F 29.87 in Calm     85 % 0.00 in
23:32 59.6 °F 55.1 °F 29.87 in Calm     85 % 0.00 in
23:37 59.4 °F 54.6 °F 29.86 in Calm     84 % 0.00 in
23:42 59.3 °F 54.8 °F 29.86 in Calm     85 % 0.00 in
23:47 59.1 °F 54.6 °F 29.86 in Calm     85 % 0.00 in
23:52 58.8 °F 54.3 °F 29.86 in Calm     85 % 0.00 in
23:57 58.6 °F 54.4 °F 29.86 in Calm     86 % 0.00 in
Park Place, Exeter, Tulare County, California, USA
Compliments of Weather Underground - 2.75 mb